sensor_id;sensor_type;location;lat;lon;timestamp;P1;durP1;ratioP1;P2;durP2;ratioP2
25549;SDS011;13444;50.562;7.262;2022-08-30T00:01:19;8.70;;;3.03;;
25549;SDS011;13444;50.562;7.262;2022-08-30T00:03:48;6.22;;;2.67;;
25549;SDS011;13444;50.562;7.262;2022-08-30T00:06:15;7.55;;;2.40;;
25549;SDS011;13444;50.562;7.262;2022-08-30T00:08:43;7.97;;;2.63;;
25549;SDS011;13444;50.562;7.262;2022-08-30T00:11:11;6.60;;;2.83;;
25549;SDS011;13444;50.562;7.262;2022-08-30T00:13:39;3.97;;;2.67;;
25549;SDS011;13444;50.562;7.262;2022-08-30T00:16:06;4.32;;;2.75;;
25549;SDS011;13444;50.562;7.262;2022-08-30T00:18:33;4.65;;;2.70;;
25549;SDS011;13444;50.562;7.262;2022-08-30T00:20:59;4.22;;;2.40;;
25549;SDS011;13444;50.562;7.262;2022-08-30T00:23:26;4.35;;;2.45;;
25549;SDS011;13444;50.562;7.262;2022-08-30T00:25:51;3.35;;;2.15;;
25549;SDS011;13444;50.562;7.262;2022-08-30T00:28:17;4.32;;;2.42;;
25549;SDS011;13444;50.562;7.262;2022-08-30T00:30:44;5.45;;;2.42;;
25549;SDS011;13444;50.562;7.262;2022-08-30T00:33:11;4.28;;;2.60;;
25549;SDS011;13444;50.562;7.262;2022-08-30T00:35:37;4.70;;;2.40;;
25549;SDS011;13444;50.562;7.262;2022-08-30T00:38:04;5.45;;;2.45;;
25549;SDS011;13444;50.562;7.262;2022-08-30T00:40:30;5.50;;;2.80;;
25549;SDS011;13444;50.562;7.262;2022-08-30T00:42:56;7.20;;;2.40;;
25549;SDS011;13444;50.562;7.262;2022-08-30T00:45:27;10.15;;;3.28;;
25549;SDS011;13444;50.562;7.262;2022-08-30T00:47:55;6.25;;;2.40;;
25549;SDS011;13444;50.562;7.262;2022-08-30T00:50:22;4.32;;;3.10;;
25549;SDS011;13444;50.562;7.262;2022-08-30T00:52:57;4.25;;;2.70;;
25549;SDS011;13444;50.562;7.262;2022-08-30T00:55:25;9.52;;;2.47;;
25549;SDS011;13444;50.562;7.262;2022-08-30T00:57:54;5.50;;;2.60;;
25549;SDS011;13444;50.562;7.262;2022-08-30T01:00:23;6.18;;;2.70;;
25549;SDS011;13444;50.562;7.262;2022-08-30T01:02:49;4.10;;;2.60;;
25549;SDS011;13444;50.562;7.262;2022-08-30T01:05:14;4.93;;;2.35;;
25549;SDS011;13444;50.562;7.262;2022-08-30T01:07:40;9.52;;;2.90;;
25549;SDS011;13444;50.562;7.262;2022-08-30T01:10:07;5.28;;;2.97;;
25549;SDS011;13444;50.562;7.262;2022-08-30T01:12:36;6.78;;;3.00;;
25549;SDS011;13444;50.562;7.262;2022-08-30T01:15:04;6.55;;;2.72;;
25549;SDS011;13444;50.562;7.262;2022-08-30T01:17:30;5.53;;;2.65;;
25549;SDS011;13444;50.562;7.262;2022-08-30T01:20:00;7.65;;;2.47;;
25549;SDS011;13444;50.562;7.262;2022-08-30T01:22:33;4.78;;;2.70;;
25549;SDS011;13444;50.562;7.262;2022-08-30T01:25:06;6.80;;;3.00;;
25549;SDS011;13444;50.562;7.262;2022-08-30T01:27:34;6.05;;;3.10;;
25549;SDS011;13444;50.562;7.262;2022-08-30T01:30:12;5.80;;;3.35;;
25549;SDS011;13444;50.562;7.262;2022-08-30T01:32:40;5.25;;;3.22;;
25549;SDS011;13444;50.562;7.262;2022-08-30T01:35:10;5.55;;;3.17;;
25549;SDS011;13444;50.562;7.262;2022-08-30T01:37:37;6.07;;;2.88;;
25549;SDS011;13444;50.562;7.262;2022-08-30T01:40:04;4.25;;;2.45;;
25549;SDS011;13444;50.562;7.262;2022-08-30T01:42:31;5.57;;;2.65;;
25549;SDS011;13444;50.562;7.262;2022-08-30T01:44:56;7.65;;;2.78;;
25549;SDS011;13444;50.562;7.262;2022-08-30T01:47:22;5.30;;;2.83;;
25549;SDS011;13444;50.562;7.262;2022-08-30T01:49:48;4.13;;;2.90;;
25549;SDS011;13444;50.562;7.262;2022-08-30T01:52:14;7.50;;;2.88;;
25549;SDS011;13444;50.562;7.262;2022-08-30T01:54:41;7.80;;;2.78;;
25549;SDS011;13444;50.562;7.262;2022-08-30T01:57:09;5.85;;;2.97;;
25549;SDS011;13444;50.562;7.262;2022-08-30T01:59:39;5.80;;;2.70;;
25549;SDS011;13444;50.562;7.262;2022-08-30T02:02:07;7.13;;;2.70;;
25549;SDS011;13444;50.562;7.262;2022-08-30T02:04:33;7.03;;;2.95;;
25549;SDS011;13444;50.562;7.262;2022-08-30T02:07:00;5.30;;;2.85;;
25549;SDS011;13444;50.562;7.262;2022-08-30T02:09:26;8.15;;;3.15;;
25549;SDS011;13444;50.562;7.262;2022-08-30T02:11:52;3.92;;;2.70;;
25549;SDS011;13444;50.562;7.262;2022-08-30T02:14:18;7.93;;;3.15;;
25549;SDS011;13444;50.562;7.262;2022-08-30T02:16:43;6.20;;;3.28;;
25549;SDS011;13444;50.562;7.262;2022-08-30T02:19:10;4.20;;;2.88;;
25549;SDS011;13444;50.562;7.262;2022-08-30T02:21:35;6.30;;;3.13;;
25549;SDS011;13444;50.562;7.262;2022-08-30T02:24:01;8.80;;;3.20;;
25549;SDS011;13444;50.562;7.262;2022-08-30T02:26:27;5.57;;;3.13;;
25549;SDS011;13444;50.562;7.262;2022-08-30T02:28:52;5.22;;;3.05;;
25549;SDS011;13444;50.562;7.262;2022-08-30T02:31:19;7.47;;;3.15;;
25549;SDS011;13444;50.562;7.262;2022-08-30T02:33:45;7.57;;;2.90;;
25549;SDS011;13444;50.562;7.262;2022-08-30T02:36:11;5.35;;;2.55;;
25549;SDS011;13444;50.562;7.262;2022-08-30T02:38:37;8.30;;;3.00;;
25549;SDS011;13444;50.562;7.262;2022-08-30T02:41:03;3.95;;;2.60;;
25549;SDS011;13444;50.562;7.262;2022-08-30T02:43:29;8.20;;;3.45;;
25549;SDS011;13444;50.562;7.262;2022-08-30T02:45:54;6.35;;;2.97;;
25549;SDS011;13444;50.562;7.262;2022-08-30T02:48:20;6.43;;;3.00;;
25549;SDS011;13444;50.562;7.262;2022-08-30T02:50:47;6.40;;;2.67;;
25549;SDS011;13444;50.562;7.262;2022-08-30T02:53:14;6.40;;;2.90;;
25549;SDS011;13444;50.562;7.262;2022-08-30T02:55:39;4.55;;;2.75;;
25549;SDS011;13444;50.562;7.262;2022-08-30T02:58:05;8.95;;;2.75;;
25549;SDS011;13444;50.562;7.262;2022-08-30T03:00:32;7.25;;;3.22;;
25549;SDS011;13444;50.562;7.262;2022-08-30T03:02:58;4.40;;;3.13;;
25549;SDS011;13444;50.562;7.262;2022-08-30T03:05:24;5.07;;;2.65;;
25549;SDS011;13444;50.562;7.262;2022-08-30T03:07:50;11.43;;;3.35;;
25549;SDS011;13444;50.562;7.262;2022-08-30T03:10:16;8.25;;;3.58;;
25549;SDS011;13444;50.562;7.262;2022-08-30T03:12:42;8.57;;;3.40;;
25549;SDS011;13444;50.562;7.262;2022-08-30T03:15:09;9.25;;;3.28;;
25549;SDS011;13444;50.562;7.262;2022-08-30T03:17:39;5.95;;;3.22;;
25549;SDS011;13444;50.562;7.262;2022-08-30T03:20:05;4.05;;;2.50;;
25549;SDS011;13444;50.562;7.262;2022-08-30T03:22:31;8.48;;;3.13;;
25549;SDS011;13444;50.562;7.262;2022-08-30T03:24:58;7.13;;;2.90;;
25549;SDS011;13444;50.562;7.262;2022-08-30T03:27:25;7.53;;;2.80;;
25549;SDS011;13444;50.562;7.262;2022-08-30T03:29:51;6.00;;;2.75;;
25549;SDS011;13444;50.562;7.262;2022-08-30T03:32:17;6.00;;;3.03;;
25549;SDS011;13444;50.562;7.262;2022-08-30T03:34:43;5.65;;;3.03;;
25549;SDS011;13444;50.562;7.262;2022-08-30T03:37:08;4.20;;;2.85;;
25549;SDS011;13444;50.562;7.262;2022-08-30T03:39:34;5.38;;;2.85;;
25549;SDS011;13444;50.562;7.262;2022-08-30T03:42:00;5.03;;;3.45;;
25549;SDS011;13444;50.562;7.262;2022-08-30T03:44:25;5.15;;;2.80;;
25549;SDS011;13444;50.562;7.262;2022-08-30T03:46:51;3.38;;;2.25;;
25549;SDS011;13444;50.562;7.262;2022-08-30T03:49:17;7.45;;;3.25;;
25549;SDS011;13444;50.562;7.262;2022-08-30T03:51:43;4.88;;;2.78;;
25549;SDS011;13444;50.562;7.262;2022-08-30T03:54:09;4.05;;;2.95;;
25549;SDS011;13444;50.562;7.262;2022-08-30T03:56:35;5.65;;;2.65;;
25549;SDS011;13444;50.562;7.262;2022-08-30T03:59:01;4.68;;;3.03;;
25549;SDS011;13444;50.562;7.262;2022-08-30T04:01:26;5.05;;;2.80;;
25549;SDS011;13444;50.562;7.262;2022-08-30T04:03:52;5.55;;;3.28;;
25549;SDS011;13444;50.562;7.262;2022-08-30T04:06:17;5.75;;;3.08;;
25549;SDS011;13444;50.562;7.262;2022-08-30T04:08:43;7.38;;;3.03;;
25549;SDS011;13444;50.562;7.262;2022-08-30T04:11:10;8.13;;;3.22;;
25549;SDS011;13444;50.562;7.262;2022-08-30T04:13:36;8.07;;;3.00;;
25549;SDS011;13444;50.562;7.262;2022-08-30T04:16:02;8.45;;;3.40;;
25549;SDS011;13444;50.562;7.262;2022-08-30T04:18:27;8.23;;;3.00;;
25549;SDS011;13444;50.562;7.262;2022-08-30T04:20:53;7.15;;;3.38;;
25549;SDS011;13444;50.562;7.262;2022-08-30T04:23:19;5.43;;;2.88;;
25549;SDS011;13444;50.562;7.262;2022-08-30T04:25:45;6.20;;;2.92;;
25549;SDS011;13444;50.562;7.262;2022-08-30T04:28:10;6.00;;;3.13;;
25549;SDS011;13444;50.562;7.262;2022-08-30T04:30:40;7.53;;;2.70;;
25549;SDS011;13444;50.562;7.262;2022-08-30T04:33:06;7.22;;;3.15;;
25549;SDS011;13444;50.562;7.262;2022-08-30T04:35:32;6.88;;;3.30;;
25549;SDS011;13444;50.562;7.262;2022-08-30T04:37:58;6.65;;;2.70;;
25549;SDS011;13444;50.562;7.262;2022-08-30T04:40:24;5.72;;;2.90;;
25549;SDS011;13444;50.562;7.262;2022-08-30T04:42:49;6.10;;;3.03;;
25549;SDS011;13444;50.562;7.262;2022-08-30T04:45:18;8.30;;;3.05;;
25549;SDS011;13444;50.562;7.262;2022-08-30T04:47:44;7.05;;;2.90;;
25549;SDS011;13444;50.562;7.262;2022-08-30T04:50:13;6.15;;;3.40;;
25549;SDS011;13444;50.562;7.262;2022-08-30T04:52:41;6.85;;;3.20;;
25549;SDS011;13444;50.562;7.262;2022-08-30T04:55:08;15.75;;;4.40;;
25549;SDS011;13444;50.562;7.262;2022-08-30T04:57:34;9.50;;;3.38;;
25549;SDS011;13444;50.562;7.262;2022-08-30T05:00:00;6.90;;;3.70;;
25549;SDS011;13444;50.562;7.262;2022-08-30T05:02:26;7.47;;;3.70;;
25549;SDS011;13444;50.562;7.262;2022-08-30T05:04:52;7.63;;;3.72;;
25549;SDS011;13444;50.562;7.262;2022-08-30T05:07:36;8.82;;;3.72;;
25549;SDS011;13444;50.562;7.262;2022-08-30T05:10:02;6.88;;;3.00;;
25549;SDS011;13444;50.562;7.262;2022-08-30T05:12:28;9.35;;;3.42;;
25549;SDS011;13444;50.562;7.262;2022-08-30T05:14:54;7.68;;;3.47;;
25549;SDS011;13444;50.562;7.262;2022-08-30T05:17:22;7.70;;;3.65;;
25549;SDS011;13444;50.562;7.262;2022-08-30T05:19:48;10.30;;;3.13;;
25549;SDS011;13444;50.562;7.262;2022-08-30T05:22:13;8.57;;;3.72;;
25549;SDS011;13444;50.562;7.262;2022-08-30T05:24:39;6.43;;;3.47;;
25549;SDS011;13444;50.562;7.262;2022-08-30T05:27:05;11.20;;;3.75;;
25549;SDS011;13444;50.562;7.262;2022-08-30T05:29:30;8.35;;;3.50;;
25549;SDS011;13444;50.562;7.262;2022-08-30T05:31:57;6.50;;;3.33;;
25549;SDS011;13444;50.562;7.262;2022-08-30T05:34:23;8.35;;;3.53;;
25549;SDS011;13444;50.562;7.262;2022-08-30T05:36:48;5.00;;;3.00;;
25549;SDS011;13444;50.562;7.262;2022-08-30T05:39:14;6.60;;;3.10;;
25549;SDS011;13444;50.562;7.262;2022-08-30T05:41:39;8.50;;;3.88;;
25549;SDS011;13444;50.562;7.262;2022-08-30T05:44:06;8.23;;;3.47;;
25549;SDS011;13444;50.562;7.262;2022-08-30T05:46:33;10.65;;;2.95;;
25549;SDS011;13444;50.562;7.262;2022-08-30T05:48:59;6.20;;;2.92;;
25549;SDS011;13444;50.562;7.262;2022-08-30T05:51:28;9.57;;;3.40;;
25549;SDS011;13444;50.562;7.262;2022-08-30T05:53:54;11.57;;;3.42;;
25549;SDS011;13444;50.562;7.262;2022-08-30T05:56:23;6.05;;;3.47;;
25549;SDS011;13444;50.562;7.262;2022-08-30T05:58:51;6.03;;;3.33;;
25549;SDS011;13444;50.562;7.262;2022-08-30T06:03:53;10.35;;;3.33;;
25549;SDS011;13444;50.562;7.262;2022-08-30T06:06:20;10.13;;;3.95;;
25549;SDS011;13444;50.562;7.262;2022-08-30T06:08:46;9.25;;;3.60;;
25549;SDS011;13444;50.562;7.262;2022-08-30T06:11:12;8.38;;;3.80;;
25549;SDS011;13444;50.562;7.262;2022-08-30T06:13:39;7.10;;;3.50;;
25549;SDS011;13444;50.562;7.262;2022-08-30T06:16:05;8.98;;;3.65;;
25549;SDS011;13444;50.562;7.262;2022-08-30T06:18:30;6.40;;;3.28;;
25549;SDS011;13444;50.562;7.262;2022-08-30T06:20:56;10.32;;;3.97;;
25549;SDS011;13444;50.562;7.262;2022-08-30T06:23:22;10.50;;;3.60;;
25549;SDS011;13444;50.562;7.262;2022-08-30T06:25:48;8.48;;;3.50;;
25549;SDS011;13444;50.562;7.262;2022-08-30T06:28:14;10.80;;;3.40;;
25549;SDS011;13444;50.562;7.262;2022-08-30T06:30:41;6.10;;;3.17;;
25549;SDS011;13444;50.562;7.262;2022-08-30T06:33:07;10.57;;;3.67;;
25549;SDS011;13444;50.562;7.262;2022-08-30T06:35:34;7.10;;;3.15;;
25549;SDS011;13444;50.562;7.262;2022-08-30T06:38:00;10.10;;;3.65;;
25549;SDS011;13444;50.562;7.262;2022-08-30T06:40:25;7.25;;;3.40;;
25549;SDS011;13444;50.562;7.262;2022-08-30T06:42:51;8.35;;;2.90;;
25549;SDS011;13444;50.562;7.262;2022-08-30T06:45:18;9.10;;;3.22;;
25549;SDS011;13444;50.562;7.262;2022-08-30T06:47:44;10.20;;;2.83;;
25549;SDS011;13444;50.562;7.262;2022-08-30T06:50:11;10.35;;;3.22;;
25549;SDS011;13444;50.562;7.262;2022-08-30T06:52:39;6.55;;;3.05;;
25549;SDS011;13444;50.562;7.262;2022-08-30T06:55:06;6.28;;;2.47;;
25549;SDS011;13444;50.562;7.262;2022-08-30T06:57:33;12.57;;;3.40;;
25549;SDS011;13444;50.562;7.262;2022-08-30T06:59:58;7.63;;;3.03;;
25549;SDS011;13444;50.562;7.262;2022-08-30T07:02:24;7.20;;;3.00;;
25549;SDS011;13444;50.562;7.262;2022-08-30T07:04:50;6.53;;;2.60;;
25549;SDS011;13444;50.562;7.262;2022-08-30T07:07:15;5.32;;;2.80;;
25549;SDS011;13444;50.562;7.262;2022-08-30T07:09:41;4.53;;;2.78;;
25549;SDS011;13444;50.562;7.262;2022-08-30T07:12:09;8.63;;;3.38;;
25549;SDS011;13444;50.562;7.262;2022-08-30T07:14:35;8.85;;;3.13;;
25549;SDS011;13444;50.562;7.262;2022-08-30T07:17:02;8.15;;;3.22;;
25549;SDS011;13444;50.562;7.262;2022-08-30T07:19:48;8.15;;;3.58;;
25549;SDS011;13444;50.562;7.262;2022-08-30T07:22:14;10.15;;;3.85;;
25549;SDS011;13444;50.562;7.262;2022-08-30T07:24:39;6.10;;;3.20;;
25549;SDS011;13444;50.562;7.262;2022-08-30T07:27:05;8.68;;;3.42;;
25549;SDS011;13444;50.562;7.262;2022-08-30T07:29:30;6.93;;;2.92;;
25549;SDS011;13444;50.562;7.262;2022-08-30T07:31:56;5.60;;;3.30;;
25549;SDS011;13444;50.562;7.262;2022-08-30T07:34:21;8.93;;;3.63;;
25549;SDS011;13444;50.562;7.262;2022-08-30T07:36:47;9.30;;;3.38;;
25549;SDS011;13444;50.562;7.262;2022-08-30T07:39:13;7.55;;;2.80;;
25549;SDS011;13444;50.562;7.262;2022-08-30T07:41:38;5.13;;;3.08;;
25549;SDS011;13444;50.562;7.262;2022-08-30T07:44:05;6.05;;;2.42;;
25549;SDS011;13444;50.562;7.262;2022-08-30T07:46:31;5.38;;;2.67;;
25549;SDS011;13444;50.562;7.262;2022-08-30T07:48:58;6.72;;;2.70;;
25549;SDS011;13444;50.562;7.262;2022-08-30T07:51:24;7.10;;;3.35;;
25549;SDS011;13444;50.562;7.262;2022-08-30T07:53:52;5.93;;;2.90;;
25549;SDS011;13444;50.562;7.262;2022-08-30T07:56:18;6.50;;;2.88;;
25549;SDS011;13444;50.562;7.262;2022-08-30T07:58:44;5.82;;;2.55;;
25549;SDS011;13444;50.562;7.262;2022-08-30T08:01:11;5.88;;;2.28;;
25549;SDS011;13444;50.562;7.262;2022-08-30T08:03:37;5.43;;;2.83;;
25549;SDS011;13444;50.562;7.262;2022-08-30T08:06:07;8.75;;;2.78;;
25549;SDS011;13444;50.562;7.262;2022-08-30T08:08:34;6.93;;;2.72;;
25549;SDS011;13444;50.562;7.262;2022-08-30T08:11:12;3.97;;;2.80;;
25549;SDS011;13444;50.562;7.262;2022-08-30T08:13:40;6.38;;;2.58;;
25549;SDS011;13444;50.562;7.262;2022-08-30T08:16:07;6.05;;;2.33;;
25549;SDS011;13444;50.562;7.262;2022-08-30T08:18:33;3.67;;;2.53;;
25549;SDS011;13444;50.562;7.262;2022-08-30T08:21:00;5.85;;;2.30;;
25549;SDS011;13444;50.562;7.262;2022-08-30T08:23:29;9.82;;;2.50;;
25549;SDS011;13444;50.562;7.262;2022-08-30T08:25:55;8.82;;;2.42;;
25549;SDS011;13444;50.562;7.262;2022-08-30T08:28:23;11.50;;;2.67;;
25549;SDS011;13444;50.562;7.262;2022-08-30T08:30:49;7.38;;;2.60;;
25549;SDS011;13444;50.562;7.262;2022-08-30T08:33:15;14.05;;;3.15;;
25549;SDS011;13444;50.562;7.262;2022-08-30T08:35:42;10.85;;;2.95;;
25549;SDS011;13444;50.562;7.262;2022-08-30T08:38:07;7.85;;;2.58;;
25549;SDS011;13444;50.562;7.262;2022-08-30T08:40:54;4.03;;;2.58;;
25549;SDS011;13444;50.562;7.262;2022-08-30T08:43:33;6.70;;;2.30;;
25549;SDS011;13444;50.562;7.262;2022-08-30T08:46:35;4.70;;;2.30;;
25549;SDS011;13444;50.562;7.262;2022-08-30T08:49:16;6.75;;;2.78;;
25549;SDS011;13444;50.562;7.262;2022-08-30T08:51:41;5.82;;;2.60;;
25549;SDS011;13444;50.562;7.262;2022-08-30T08:54:34;6.35;;;2.78;;
25549;SDS011;13444;50.562;7.262;2022-08-30T08:57:06;5.88;;;2.05;;
25549;SDS011;13444;50.562;7.262;2022-08-30T08:59:33;7.80;;;2.30;;
25549;SDS011;13444;50.562;7.262;2022-08-30T09:01:59;5.68;;;2.20;;
25549;SDS011;13444;50.562;7.262;2022-08-30T09:04:35;4.10;;;2.25;;
25549;SDS011;13444;50.562;7.262;2022-08-30T09:07:08;7.85;;;2.45;;
25549;SDS011;13444;50.562;7.262;2022-08-30T09:09:43;5.30;;;2.55;;
25549;SDS011;13444;50.562;7.262;2022-08-30T09:12:09;8.43;;;2.80;;
25549;SDS011;13444;50.562;7.262;2022-08-30T09:14:38;4.43;;;2.38;;
25549;SDS011;13444;50.562;7.262;2022-08-30T09:17:09;4.97;;;2.45;;
25549;SDS011;13444;50.562;7.262;2022-08-30T09:24:52;4.80;;;2.17;;
25549;SDS011;13444;50.562;7.262;2022-08-30T09:30:18;4.72;;;2.17;;
25549;SDS011;13444;50.562;7.262;2022-08-30T09:32:59;5.45;;;2.90;;
25549;SDS011;13444;50.562;7.262;2022-08-30T09:35:48;10.13;;;2.60;;
25549;SDS011;13444;50.562;7.262;2022-08-30T09:38:20;8.68;;;2.30;;
25549;SDS011;13444;50.562;7.262;2022-08-30T09:40:49;5.97;;;2.03;;
25549;SDS011;13444;50.562;7.262;2022-08-30T09:45:43;6.00;;;2.70;;
25549;SDS011;13444;50.562;7.262;2022-08-30T09:51:08;7.90;;;2.35;;
25549;SDS011;13444;50.562;7.262;2022-08-30T09:59:30;6.25;;;2.55;;
25549;SDS011;13444;50.562;7.262;2022-08-30T10:05:05;29.00;;;3.97;;
25549;SDS011;13444;50.562;7.262;2022-08-30T10:07:42;26.85;;;3.70;;
25549;SDS011;13444;50.562;7.262;2022-08-30T10:10:34;5.93;;;2.20;;
25549;SDS011;13444;50.562;7.262;2022-08-30T10:15:50;10.77;;;2.50;;
25549;SDS011;13444;50.562;7.262;2022-08-30T10:18:30;9.20;;;2.60;;
25549;SDS011;13444;50.562;7.262;2022-08-30T10:21:22;5.80;;;2.63;;
25549;SDS011;13444;50.562;7.262;2022-08-30T10:24:05;4.80;;;1.85;;
25549;SDS011;13444;50.562;7.262;2022-08-30T10:26:42;5.13;;;2.30;;
25549;SDS011;13444;50.562;7.262;2022-08-30T10:29:14;7.68;;;3.10;;
25549;SDS011;13444;50.562;7.262;2022-08-30T10:31:47;3.70;;;2.17;;
25549;SDS011;13444;50.562;7.262;2022-08-30T10:34:23;10.68;;;2.38;;
25549;SDS011;13444;50.562;7.262;2022-08-30T10:36:55;5.35;;;2.60;;
25549;SDS011;13444;50.562;7.262;2022-08-30T10:39:25;4.20;;;2.30;;
25549;SDS011;13444;50.562;7.262;2022-08-30T10:42:00;8.75;;;2.40;;
25549;SDS011;13444;50.562;7.262;2022-08-30T10:44:36;6.13;;;2.50;;
25549;SDS011;13444;50.562;7.262;2022-08-30T10:49:48;10.43;;;2.47;;
25549;SDS011;13444;50.562;7.262;2022-08-30T10:52:27;3.75;;;2.03;;
25549;SDS011;13444;50.562;7.262;2022-08-30T10:55:13;3.60;;;2.08;;
25549;SDS011;13444;50.562;7.262;2022-08-30T10:57:42;6.72;;;2.15;;
25549;SDS011;13444;50.562;7.262;2022-08-30T11:05:54;3.70;;;2.33;;
25549;SDS011;13444;50.562;7.262;2022-08-30T11:08:46;5.88;;;2.25;;
25549;SDS011;13444;50.562;7.262;2022-08-30T11:14:22;5.82;;;2.50;;
25549;SDS011;13444;50.562;7.262;2022-08-30T11:16:50;6.45;;;2.00;;
25549;SDS011;13444;50.562;7.262;2022-08-30T11:21:49;4.43;;;2.17;;
25549;SDS011;13444;50.562;7.262;2022-08-30T11:24:16;3.53;;;2.13;;
25549;SDS011;13444;50.562;7.262;2022-08-30T11:31:51;3.60;;;2.17;;
25549;SDS011;13444;50.562;7.262;2022-08-30T11:34:52;4.78;;;2.30;;
25549;SDS011;13444;50.562;7.262;2022-08-30T11:42:44;3.67;;;2.10;;
25549;SDS011;13444;50.562;7.262;2022-08-30T11:47:50;4.80;;;2.00;;
25549;SDS011;13444;50.562;7.262;2022-08-30T11:50:21;5.30;;;2.40;;
25549;SDS011;13444;50.562;7.262;2022-08-30T11:53:05;6.28;;;2.13;;
25549;SDS011;13444;50.562;7.262;2022-08-30T12:03:57;3.50;;;2.15;;
25549;SDS011;13444;50.562;7.262;2022-08-30T12:07:07;8.80;;;2.30;;
25549;SDS011;13444;50.562;7.262;2022-08-30T12:11:59;3.20;;;1.98;;
25549;SDS011;13444;50.562;7.262;2022-08-30T12:14:36;5.70;;;2.20;;
25549;SDS011;13444;50.562;7.262;2022-08-30T12:17:28;6.93;;;2.38;;
25549;SDS011;13444;50.562;7.262;2022-08-30T12:20:30;3.40;;;2.08;;
25549;SDS011;13444;50.562;7.262;2022-08-30T12:31:42;3.60;;;2.20;;
25549;SDS011;13444;50.562;7.262;2022-08-30T12:34:16;3.35;;;2.20;;
25549;SDS011;13444;50.562;7.262;2022-08-30T12:37:00;5.18;;;2.30;;
25549;SDS011;13444;50.562;7.262;2022-08-30T12:39:32;5.57;;;2.65;;
25549;SDS011;13444;50.562;7.262;2022-08-30T12:44:45;3.90;;;2.10;;
25549;SDS011;13444;50.562;7.262;2022-08-30T12:47:13;4.60;;;2.42;;
25549;SDS011;13444;50.562;7.262;2022-08-30T12:49:43;4.25;;;2.22;;
25549;SDS011;13444;50.562;7.262;2022-08-30T12:52:14;4.85;;;2.58;;
25549;SDS011;13444;50.562;7.262;2022-08-30T12:54:53;6.85;;;2.65;;
25549;SDS011;13444;50.562;7.262;2022-08-30T13:00:04;3.55;;;2.60;;
25549;SDS011;13444;50.562;7.262;2022-08-30T13:02:45;4.22;;;2.40;;
25549;SDS011;13444;50.562;7.262;2022-08-30T13:05:41;4.63;;;2.53;;
25549;SDS011;13444;50.562;7.262;2022-08-30T13:08:15;6.15;;;2.40;;
25549;SDS011;13444;50.562;7.262;2022-08-30T13:10:49;4.55;;;2.65;;
25549;SDS011;13444;50.562;7.262;2022-08-30T13:13:27;5.25;;;2.33;;
25549;SDS011;13444;50.562;7.262;2022-08-30T13:16:19;4.63;;;2.25;;
25549;SDS011;13444;50.562;7.262;2022-08-30T13:21:20;3.45;;;2.25;;
25549;SDS011;13444;50.562;7.262;2022-08-30T13:23:57;5.50;;;2.25;;
25549;SDS011;13444;50.562;7.262;2022-08-30T13:26:25;5.65;;;2.45;;
25549;SDS011;13444;50.562;7.262;2022-08-30T13:28:53;8.35;;;2.58;;
25549;SDS011;13444;50.562;7.262;2022-08-30T13:31:23;2.20;;;2.00;;
25549;SDS011;13444;50.562;7.262;2022-08-30T13:33:50;5.70;;;2.50;;
25549;SDS011;13444;50.562;7.262;2022-08-30T13:36:17;4.72;;;2.80;;
25549;SDS011;13444;50.562;7.262;2022-08-30T13:38:48;4.10;;;2.70;;
25549;SDS011;13444;50.562;7.262;2022-08-30T13:41:14;4.60;;;2.85;;
25549;SDS011;13444;50.562;7.262;2022-08-30T13:43:40;5.28;;;2.88;;
25549;SDS011;13444;50.562;7.262;2022-08-30T13:46:06;7.60;;;3.00;;
25549;SDS011;13444;50.562;7.262;2022-08-30T13:48:32;5.90;;;2.45;;
25549;SDS011;13444;50.562;7.262;2022-08-30T13:50:58;6.47;;;2.88;;
25549;SDS011;13444;50.562;7.262;2022-08-30T13:53:24;4.55;;;2.60;;
25549;SDS011;13444;50.562;7.262;2022-08-30T13:55:50;4.95;;;3.00;;
25549;SDS011;13444;50.562;7.262;2022-08-30T13:58:16;4.97;;;2.70;;
25549;SDS011;13444;50.562;7.262;2022-08-30T14:00:42;3.53;;;2.58;;
25549;SDS011;13444;50.562;7.262;2022-08-30T14:03:10;6.15;;;2.63;;
25549;SDS011;13444;50.562;7.262;2022-08-30T14:05:39;6.22;;;2.80;;
25549;SDS011;13444;50.562;7.262;2022-08-30T14:08:06;3.13;;;2.83;;
25549;SDS011;13444;50.562;7.262;2022-08-30T14:10:33;4.72;;;2.70;;
25549;SDS011;13444;50.562;7.262;2022-08-30T14:12:59;5.68;;;2.60;;
25549;SDS011;13444;50.562;7.262;2022-08-30T14:15:25;4.93;;;2.75;;
25549;SDS011;13444;50.562;7.262;2022-08-30T14:17:50;3.88;;;2.53;;
25549;SDS011;13444;50.562;7.262;2022-08-30T14:20:16;4.25;;;2.67;;
25549;SDS011;13444;50.562;7.262;2022-08-30T14:22:42;4.45;;;2.50;;
25549;SDS011;13444;50.562;7.262;2022-08-30T14:25:08;7.05;;;2.85;;
25549;SDS011;13444;50.562;7.262;2022-08-30T14:27:33;8.30;;;3.05;;
25549;SDS011;13444;50.562;7.262;2022-08-30T14:29:59;5.63;;;2.90;;
25549;SDS011;13444;50.562;7.262;2022-08-30T14:32:25;6.00;;;2.90;;
25549;SDS011;13444;50.562;7.262;2022-08-30T14:34:50;4.65;;;3.10;;
25549;SDS011;13444;50.562;7.262;2022-08-30T14:37:16;4.57;;;2.97;;
25549;SDS011;13444;50.562;7.262;2022-08-30T14:39:42;3.70;;;2.38;;
25549;SDS011;13444;50.562;7.262;2022-08-30T14:42:07;4.95;;;2.88;;
25549;SDS011;13444;50.562;7.262;2022-08-30T14:44:35;4.93;;;2.47;;
25549;SDS011;13444;50.562;7.262;2022-08-30T14:47:01;5.47;;;2.50;;
25549;SDS011;13444;50.562;7.262;2022-08-30T14:49:27;6.93;;;2.72;;
25549;SDS011;13444;50.562;7.262;2022-08-30T14:51:53;6.05;;;2.60;;
25549;SDS011;13444;50.562;7.262;2022-08-30T14:54:20;3.60;;;2.58;;
25549;SDS011;13444;50.562;7.262;2022-08-30T14:56:48;3.85;;;2.70;;
25549;SDS011;13444;50.562;7.262;2022-08-30T14:59:14;5.35;;;2.63;;
25549;SDS011;13444;50.562;7.262;2022-08-30T15:01:40;6.28;;;2.85;;
25549;SDS011;13444;50.562;7.262;2022-08-30T15:04:07;5.55;;;2.53;;
25549;SDS011;13444;50.562;7.262;2022-08-30T15:06:34;8.35;;;3.13;;
25549;SDS011;13444;50.562;7.262;2022-08-30T15:09:01;6.88;;;2.97;;
25549;SDS011;13444;50.562;7.262;2022-08-30T15:11:27;7.05;;;2.85;;
25549;SDS011;13444;50.562;7.262;2022-08-30T15:13:53;5.82;;;2.40;;
25549;SDS011;13444;50.562;7.262;2022-08-30T15:16:20;3.33;;;2.38;;
25549;SDS011;13444;50.562;7.262;2022-08-30T15:18:53;4.40;;;2.72;;
25549;SDS011;13444;50.562;7.262;2022-08-30T15:21:22;9.82;;;3.42;;
25549;SDS011;13444;50.562;7.262;2022-08-30T15:23:50;6.05;;;2.70;;
25549;SDS011;13444;50.562;7.262;2022-08-30T15:26:16;3.50;;;2.40;;
25549;SDS011;13444;50.562;7.262;2022-08-30T15:28:41;5.60;;;2.33;;
25549;SDS011;13444;50.562;7.262;2022-08-30T15:31:07;4.38;;;2.70;;
25549;SDS011;13444;50.562;7.262;2022-08-30T15:33:32;3.25;;;2.72;;
25549;SDS011;13444;50.562;7.262;2022-08-30T15:36:01;6.25;;;2.60;;
25549;SDS011;13444;50.562;7.262;2022-08-30T15:38:28;6.97;;;2.85;;
25549;SDS011;13444;50.562;7.262;2022-08-30T15:40:54;3.42;;;2.10;;
25549;SDS011;13444;50.562;7.262;2022-08-30T15:43:23;4.18;;;2.22;;
25549;SDS011;13444;50.562;7.262;2022-08-30T15:45:49;5.50;;;2.85;;
25549;SDS011;13444;50.562;7.262;2022-08-30T15:48:17;6.88;;;2.67;;
25549;SDS011;13444;50.562;7.262;2022-08-30T15:50:42;10.35;;;2.63;;
25549;SDS011;13444;50.562;7.262;2022-08-30T15:53:08;6.47;;;3.20;;
25549;SDS011;13444;50.562;7.262;2022-08-30T15:55:34;3.33;;;2.45;;
25549;SDS011;13444;50.562;7.262;2022-08-30T15:57:59;8.88;;;2.50;;
25549;SDS011;13444;50.562;7.262;2022-08-30T16:00:25;4.38;;;2.20;;
25549;SDS011;13444;50.562;7.262;2022-08-30T16:02:50;3.20;;;2.30;;
25549;SDS011;13444;50.562;7.262;2022-08-30T16:05:17;4.95;;;2.70;;
25549;SDS011;13444;50.562;7.262;2022-08-30T16:07:44;6.43;;;2.85;;
25549;SDS011;13444;50.562;7.262;2022-08-30T16:10:11;4.30;;;3.08;;
25549;SDS011;13444;50.562;7.262;2022-08-30T16:12:37;9.98;;;2.88;;
25549;SDS011;13444;50.562;7.262;2022-08-30T16:15:03;4.82;;;2.60;;
25549;SDS011;13444;50.562;7.262;2022-08-30T16:17:29;9.68;;;2.55;;